createdAt,value
2019-03-28T00:02:16.138Z,24.40
2019-03-28T00:07:24.242Z,29.37
2019-03-28T00:12:30.232Z,29.37
2019-03-28T00:17:36.021Z,26.40
2019-03-28T00:22:50.388Z,27.17
2019-03-28T00:27:57.250Z,33.63
2019-03-28T00:33:03.674Z,24.87
2019-03-28T00:38:10.212Z,25.90
2019-03-28T00:43:16.801Z,25.70
2019-03-28T00:48:23.432Z,25.50
2019-03-28T00:53:31.156Z,26.80
2019-03-28T00:58:36.773Z,29.13
2019-03-28T01:03:44.179Z,25.77
2019-03-28T01:08:51.165Z,25.93
2019-03-28T01:13:58.260Z,29.10
2019-03-28T01:19:05.969Z,34.33
2019-03-28T01:24:13.432Z,25.73
2019-03-28T01:29:19.080Z,32.90
2019-03-28T01:34:24.830Z,28.00
2019-03-28T01:39:30.690Z,28.90
2019-03-28T01:44:38.434Z,24.27
2019-03-28T01:49:45.397Z,32.93
2019-03-28T01:54:52.652Z,34.27
2019-03-28T01:59:58.518Z,33.00
2019-03-28T02:05:07.399Z,32.93
2019-03-28T02:10:14.296Z,35.73
2019-03-28T02:15:21.196Z,33.03
2019-03-28T02:20:28.313Z,36.93
2019-03-28T02:25:46.928Z,35.80
2019-03-28T02:30:52.615Z,33.77
2019-03-28T02:35:59.627Z,38.87
2019-03-28T02:41:07.106Z,38.60
2019-03-28T02:46:13.590Z,43.90
2019-03-28T02:51:41.105Z,47.47
2019-03-28T02:56:47.983Z,37.67
2019-03-28T03:01:53.637Z,39.87
2019-03-28T03:07:00.910Z,43.77
2019-03-28T03:12:07.849Z,44.13
2019-03-28T03:17:13.638Z,39.40
2019-03-28T03:22:20.158Z,34.87
2019-03-28T03:27:26.681Z,32.10
2019-03-28T03:32:33.476Z,29.23
2019-03-28T03:37:39.945Z,30.43
2019-03-28T03:42:47.781Z,25.20
2019-03-28T03:47:54.463Z,29.33
2019-03-28T03:53:02.694Z,28.83
2019-03-28T03:58:16.181Z,30.27
2019-03-28T04:03:19.872Z,30.77
2019-03-28T04:08:27.171Z,28.87
2019-03-28T04:13:34.448Z,33.40
2019-03-28T04:18:41.931Z,34.40
2019-03-28T04:23:48.393Z,35.57
2019-03-28T04:28:55.151Z,34.13
2019-03-28T04:34:07.409Z,39.53
2019-03-28T04:39:09.830Z,32.10
2019-03-28T04:44:16.413Z,38.37
2019-03-28T04:49:21.980Z,35.37
2019-03-28T04:54:27.645Z,34.93
2019-03-28T04:59:33.409Z,37.73
2019-03-28T05:04:40.506Z,37.70
2019-03-28T05:09:47.523Z,41.00
2019-03-28T05:14:54.000Z,42.03
2019-03-28T05:20:01.531Z,35.43
2019-03-28T05:25:09.002Z,39.23
2019-03-28T05:30:16.007Z,41.40
2019-03-28T05:35:23.940Z,41.53
2019-03-28T05:40:29.699Z,45.50
2019-03-28T05:45:35.487Z,47.93
2019-03-28T05:50:41.131Z,49.13
2019-03-28T05:55:47.327Z,48.40
2019-03-28T06:00:53.273Z,46.37
2019-03-28T06:06:01.078Z,47.60
2019-03-28T06:11:07.601Z,43.03
2019-03-28T06:16:14.153Z,41.30
2019-03-28T06:21:23.062Z,43.13
2019-03-28T06:26:30.114Z,45.63
2019-03-28T06:31:36.669Z,51.00
2019-03-28T06:37:01.786Z,44.77
2019-03-28T06:42:08.969Z,44.80
2019-03-28T06:47:15.572Z,43.97
2019-03-28T06:52:21.954Z,40.27
2019-03-28T06:57:27.724Z,39.67
2019-03-28T07:02:33.922Z,48.17
2019-03-28T07:07:40.448Z,36.87
2019-03-28T07:12:46.975Z,43.70
2019-03-28T07:17:53.630Z,40.17
2019-03-28T07:23:00.119Z,41.73
2019-03-28T07:28:06.745Z,42.43
2019-03-28T07:33:13.007Z,38.30
2019-03-28T07:38:20.461Z,41.40
2019-03-28T07:43:27.026Z,46.37
2019-03-28T07:48:32.763Z,45.83
2019-03-28T07:53:40.136Z,42.17
2019-03-28T07:58:46.664Z,41.07
2019-03-28T08:03:53.207Z,38.53
2019-03-28T08:09:00.928Z,36.60
2019-03-28T08:14:08.643Z,31.83
2019-03-28T08:19:15.257Z,34.57
2019-03-28T08:24:20.916Z,36.40
2019-03-28T08:29:27.501Z,35.17
2019-03-28T08:34:33.386Z,34.13
2019-03-28T08:39:44.479Z,34.87
2019-03-28T08:44:50.797Z,37.77
2019-03-28T08:49:58.813Z,45.17
2019-03-28T08:55:10.441Z,41.50
2019-03-28T09:00:32.313Z,39.80
2019-03-28T09:05:25.284Z,39.10
2019-03-28T09:10:32.384Z,42.87
2019-03-28T09:15:43.972Z,43.07
2019-03-28T09:20:46.668Z,39.60
2019-03-28T09:25:55.351Z,40.53
2019-03-28T09:31:02.145Z,42.23
2019-03-28T09:36:07.757Z,36.97
2019-03-28T09:41:14.625Z,42.30
2019-03-28T09:46:20.311Z,45.37
2019-03-28T09:51:27.138Z,46.83
2019-03-28T09:56:33.199Z,42.97
2019-03-28T10:01:38.869Z,40.77
2019-03-28T10:06:45.731Z,42.83
2019-03-28T10:11:53.347Z,46.07
2019-03-28T10:16:59.732Z,46.67
2019-03-28T10:22:07.336Z,45.13
2019-03-28T10:27:14.254Z,44.97
2019-03-28T10:32:32.741Z,39.03
2019-03-28T10:37:39.515Z,42.03
2019-03-28T10:42:46.245Z,44.53
2019-03-28T10:47:53.652Z,44.27
2019-03-28T10:53:00.990Z,43.23
2019-03-28T10:58:18.342Z,48.37
2019-03-28T11:03:17.961Z,40.77
2019-03-28T11:08:27.460Z,45.97
2019-03-28T11:13:34.815Z,44.60
2019-03-28T11:18:43.159Z,41.90
2019-03-28T11:23:49.642Z,38.73
2019-03-28T11:29:00.835Z,37.43
2019-03-28T11:34:06.601Z,38.57
2019-03-28T11:39:13.529Z,43.67
2019-03-28T11:44:21.400Z,40.90
2019-03-28T11:49:28.392Z,37.20
2019-03-28T11:54:34.471Z,38.33
2019-03-28T11:59:40.649Z,39.53
2019-03-28T12:04:48.855Z,42.27
2019-03-28T12:09:55.974Z,43.70
2019-03-28T12:15:02.461Z,42.00
2019-03-28T12:20:21.053Z,40.00
2019-03-28T12:25:28.529Z,35.30
2019-03-28T12:30:34.607Z,32.73
2019-03-28T12:35:43.641Z,36.70
2019-03-28T12:40:51.476Z,36.33
2019-03-28T12:45:57.943Z,39.00
2019-03-28T12:51:05.928Z,25.00
2019-03-28T12:56:12.961Z,27.80
2019-03-28T13:01:20.873Z,32.53
2019-03-28T13:06:26.851Z,33.20
2019-03-28T13:11:32.819Z,25.67
2019-03-28T13:16:39.716Z,26.63
2019-03-28T13:21:46.111Z,29.83
2019-03-28T13:26:53.486Z,33.87
2019-03-28T13:32:03.071Z,30.07
2019-03-28T13:37:10.867Z,31.27
2019-03-28T13:42:17.652Z,32.93
2019-03-28T13:47:24.628Z,33.17
2019-03-28T13:52:32.268Z,35.63
2019-03-28T13:57:39.174Z,41.90
2019-03-28T14:02:55.854Z,40.67
2019-03-28T14:07:56.577Z,40.37
2019-03-28T14:13:03.329Z,36.83
2019-03-28T14:18:11.029Z,36.57
2019-03-28T14:23:19.279Z,37.20
2019-03-28T14:28:26.460Z,37.13
2019-03-28T14:33:32.551Z,33.50
2019-03-28T14:38:42.004Z,41.57
2019-03-28T14:43:49.080Z,34.10
2019-03-28T14:48:57.027Z,32.23
2019-03-28T14:54:03.908Z,32.10
2019-03-28T14:59:12.020Z,41.53
2019-03-28T15:04:18.945Z,35.90
2019-03-28T15:09:26.744Z,34.83
2019-03-28T15:14:35.357Z,35.20
2019-03-28T15:19:42.157Z,31.37
2019-03-28T15:24:51.864Z,32.57
2019-03-28T15:29:58.757Z,30.87
2019-03-28T15:35:07.072Z,29.90
2019-03-28T15:40:14.691Z,29.53
2019-03-28T15:45:23.283Z,30.37
2019-03-28T15:50:31.962Z,30.77
2019-03-28T15:55:41.658Z,30.53
2019-03-28T16:00:49.750Z,27.43
2019-03-28T16:05:58.842Z,30.53
2019-03-28T16:11:05.821Z,27.37
2019-03-28T16:16:13.433Z,31.63
2019-03-28T16:21:21.628Z,25.53
2019-03-28T16:26:30.127Z,29.10
2019-03-28T16:31:37.762Z,28.93
2019-03-28T16:36:47.010Z,30.07
2019-03-28T16:41:56.519Z,29.33
2019-03-28T16:47:03.741Z,33.10
2019-03-28T16:52:12.915Z,29.90
2019-03-28T16:57:40.836Z,29.13
2019-03-28T17:02:50.592Z,31.17
2019-03-28T17:07:59.235Z,34.97
2019-03-28T17:13:08.478Z,30.67
2019-03-28T17:18:18.708Z,34.50
2019-03-28T17:23:25.299Z,31.33
2019-03-28T17:28:33.929Z,39.33
2019-03-28T17:33:42.262Z,39.50
2019-03-28T17:38:51.559Z,33.43
2019-03-28T17:43:58.323Z,32.97
2019-03-28T17:49:05.400Z,33.23
2019-03-28T17:54:13.763Z,34.10
2019-03-28T17:59:22.041Z,34.90
2019-03-28T18:04:29.593Z,33.77
2019-03-28T18:09:37.788Z,35.00
2019-03-28T18:14:46.987Z,36.03
2019-03-28T18:19:53.816Z,41.73
2019-03-28T18:24:59.774Z,46.97
2019-03-28T18:30:09.296Z,43.03
2019-03-28T18:35:15.561Z,42.07
2019-03-28T18:40:22.499Z,43.10
2019-03-28T18:45:28.539Z,43.07
2019-03-28T18:50:36.192Z,40.43
2019-03-28T18:55:43.304Z,42.57
2019-03-28T19:00:49.257Z,37.43
2019-03-28T19:05:55.243Z,41.37
2019-03-28T19:11:01.230Z,41.77
2019-03-28T19:16:08.007Z,44.43
2019-03-28T19:21:14.909Z,44.20
2019-03-28T19:26:20.885Z,40.13
2019-03-28T19:31:27.741Z,41.43
2019-03-28T19:36:35.379Z,35.73
2019-03-28T19:41:41.360Z,37.73
2019-03-28T19:46:47.333Z,38.30
2019-03-28T19:51:54.846Z,36.27
2019-03-28T19:57:04.085Z,34.80
2019-03-28T20:02:14.365Z,45.23
2019-03-28T20:07:23.885Z,42.50
2019-03-28T20:12:33.169Z,46.80
2019-03-28T20:17:41.332Z,50.10
2019-03-28T20:22:49.180Z,48.70
2019-03-28T20:27:57.761Z,45.03
2019-03-28T20:33:07.618Z,38.30
2019-03-28T20:38:16.459Z,39.40
2019-03-28T20:43:23.730Z,40.20
2019-03-28T20:48:32.460Z,40.53
2019-03-28T20:58:50.914Z,35.63
2019-03-28T21:04:00.384Z,35.17
2019-03-28T21:09:10.588Z,33.80
2019-03-28T21:14:21.815Z,35.27
2019-03-28T21:19:30.861Z,37.40
2019-03-28T21:24:38.171Z,36.67
2019-03-28T21:29:49.008Z,36.93
2019-03-28T21:34:57.795Z,38.10
2019-03-28T21:40:08.014Z,34.97
2019-03-28T21:45:15.628Z,39.20
2019-03-28T21:50:22.550Z,39.30
2019-03-28T21:55:29.727Z,39.53
2019-03-28T22:00:37.079Z,34.67
2019-03-28T22:05:44.539Z,36.40
2019-03-28T22:10:51.680Z,34.77
2019-03-28T22:15:58.414Z,30.57
2019-03-28T22:21:06.228Z,30.07
2019-03-28T22:26:14.846Z,28.90
2019-03-28T22:31:23.336Z,28.83
2019-03-28T22:36:30.956Z,30.23
2019-03-28T22:41:37.019Z,30.53
2019-03-28T22:46:42.987Z,31.07
2019-03-28T22:51:49.472Z,27.43
2019-03-28T22:56:56.778Z,29.63
2019-03-28T23:02:03.953Z,32.77
2019-03-28T23:07:14.599Z,34.10
2019-03-28T23:12:21.863Z,38.77
2019-03-28T23:17:28.415Z,37.17
2019-03-28T23:22:35.547Z,36.00
2019-03-28T23:27:43.751Z,35.47
2019-03-28T23:32:52.404Z,36.70
2019-03-28T23:38:01.871Z,40.97
2019-03-28T23:43:09.817Z,37.47
2019-03-28T23:48:18.247Z,40.60
2019-03-28T23:53:26.640Z,38.83
2019-03-28T23:58:34.257Z,39.33
